Weather observations for the past three days for
Burlington/Mount Vernon, Skagit Regional Airport
Metric (Imperial)
Date Time (pdt) Wind (kph) Vis. (km) Weather Sky Cond. Temperature (ºC) Relative Humidity Wind Chill (°C) Heat Index (°C) Pressure Precipitation (cm)
Air Dwpt 6 hour altimeter (cm) sea level (mb) 1 hr 3 hr 6 hr
Max. Min.
02 18:55 NW 13 16.09 Fair CLR 20 10 53% 76.02 0.0
02 18:35 NW 19 16.09 Fair CLR 20 10 53% 76.02 0.0
02 18:15 NW 19 16.09 Fair CLR 20 10 53% 76.02 0.0
02 17:55 NW 22 16.09 Fair CLR 20 10 53% 76.05 0.0
02 17:35 NW 19 16.09 Fair CLR 20 10 53% 76.05 0.0
02 17:15 NW 17 G 28 16.09 Fair CLR 20 10 53% 76.05 0.0
02 16:55 NW 24 16.09 Fair CLR 20 11 56% 76.05 0.0
02 16:35 NW 26 16.09 Fair CLR 20 11 56% 76.07 0.0
02 16:15 NW 24 16.09 Fair CLR 20 12 60% 76.1 0.0
02 15:55 NW 20 16.09 Fair CLR 20 12 60% 76.1 0.0
02 15:35 NW 22 16.09 Fair CLR 19 11 60% 76.12 0.0
02 15:15 NW 20 16.09 Fair CLR 19 12 64% 76.15 0.0
02 14:55 NW 26 16.09 Fair CLR 19 12 64% 76.17 0.0
02 14:35 NW 26 16.09 Fair CLR 19 12 64% 76.17 0.0
02 14:15 NW 24 G 37 16.09 Fair CLR 18 12 68% 76.2 0.0
02 13:55 NW 28 16.09 Fair CLR 18 11 64% 76.23 0.0
02 13:35 NW 20 G 30 16.09 Fair CLR 18 12 68% 76.23 0.0
02 13:15 NW 22 16.09 Fair CLR 18 13 73% 76.25 0.0
02 12:35 NW 17 16.09 Fair CLR 18 14 78% 76.28 0.0
02 12:15 NW 22 16.09 Fair CLR 17 13 77% 76.28 0.0
02 11:55 NW 19 16.09 Fair CLR 18 14 78% 76.3 0.0
02 11:35 NW 17 16.09 Fair CLR 17 14 83% 76.3 0.0
02 11:15 NW 17 16.09 Fair CLR 16 14 88% 76.3 0.0
02 10:55 NW 13 16.09 Fair CLR 16 14 88% 76.33 0.0
02 10:35 NW 17 16.09 Fair CLR 16 14 88% 76.33 0.0
02 10:15 NW 17 16.09 Fair CLR 15 14 94% 76.33 0.0
02 09:55 NW 20 16.09 A Few Clouds FEW120 15 14 94% 76.33 0.0
02 09:35 NW 19 16.09 Fair CLR 15 14 94% 76.33 0.0
02 09:15 NW 19 16.09 A Few Clouds FEW011 15 14 94% 76.33 0.0
02 08:55 N 15 G 24 16.09 Fair CLR 14 13 94% 76.33 0.0
02 08:35 N 11 16.09 A Few Clouds FEW013 FEW110 13 13 100% 76.33 0.0
02 08:15 N 7 16.09 Mostly Cloudy SCT009 BKN013 BKN110 12 12 100% 76.33 0.0
02 07:55 Calm 16.09 Mostly Cloudy BKN012 BKN120 11 11 100% 76.35 0.0
02 07:35 NW 7 16.09 Partly Cloudy SCT110 11 11 100% 76.33 0.0
02 07:15 Calm 16.09 Mostly Cloudy FEW015 BKN110 10 10 100% 76.33 0.0
02 06:55 Calm 14.48 Mostly Cloudy FEW015 BKN110 9 9 100% 76.33 0.0
02 06:35 Calm 14.48 A Few Clouds FEW120 9 9 100% 76.33 0.0
02 06:15 Calm 8.05 Fog/Mist CLR 8 8 100% 76.33 0.0
02 05:55 Calm 4.83 Fog/Mist CLR 8 8 100% 76.33 0.0
02 05:35 Calm 12.87 Fair CLR 9 9 100% 76.3 0.0
02 05:15 Calm 9.66 Fog/Mist FEW110 8 8 100% 76.28 0.0
02 04:55 Calm 14.48 A Few Clouds FEW120 9 9 100% 76.28 0.0
02 04:35 Calm 16.09 A Few Clouds FEW120 9 9 100% 76.28 0.0
02 04:15 Calm 16.09 Partly Cloudy SCT110 9 9 100% 76.28 0.0
02 03:55 SW 7 16.09 Mostly Cloudy BKN110 9 9 100% 8 76.28 0.0
02 03:35 Calm 16.09 Mostly Cloudy BKN110 9 9 100% 76.28 0.0
02 03:15 Calm 16.09 Partly Cloudy SCT120 9 9 100% 76.28 0.0
02 02:55 Calm 16.09 Partly Cloudy SCT110 9 9 100% 76.28 0.0
02 02:35 Calm 16.09 Overcast OVC110 9 9 100% 76.28 0.0
02 02:15 Calm 16.09 Mostly Cloudy BKN110 9 9 100% 76.25 0.0
02 01:55 Calm 16.09 Fair CLR 9 9 100% 76.25 0.0
02 01:35 Calm 16.09 Fair CLR 9 9 100% 76.28 0.0
02 01:15 Calm 16.09 Fair CLR 10 10 100% 76.28 0.0
02 00:55 SW 6 16.09 Fair CLR 10 10 100% 76.28 0.0
02 00:15 Calm 16.09 Mostly Cloudy FEW003 BKN110 10 10 100% 76.25 0.0
01 23:55 Calm 16.09 Mostly Cloudy SCT003 BKN046 BKN110 10 10 100% 76.25 0.0
01 23:35 Calm 16.09 Partly Cloudy FEW003 SCT047 SCT110 10 10 100% 76.23 0.0
01 23:15 Calm 16.09 Mostly Cloudy FEW049 BKN110 11 10 94% 76.2 0.0
01 22:55 Calm 16.09 Mostly Cloudy FEW047 BKN110 11 11 100% 76.2 0.0
01 22:35 SW 9 16.09 A Few Clouds FEW110 11 11 100% 76.23 0.0
01 22:15 Calm 16.09 Partly Cloudy SCT110 12 11 94% 76.23 0.0
01 21:55 Calm 16.09 Mostly Cloudy SCT095 BKN110 12 11 94% 76.2 0.0
01 21:35 Calm 16.09 Overcast OVC100 13 11 88% 76.2 0.0
01 21:15 Calm 16.09 Overcast OVC100 13 11 88% 76.2 0.0
01 20:55 SW 15 16.09 Mostly Cloudy BKN110 13 11 88% 76.2 0.0
01 20:35 Calm 16.09 Mostly Cloudy BKN110 13 11 88% 76.15 0.0
01 20:15 Calm 16.09 A Few Clouds FEW110 14 11 82% 76.12 0.0
01 19:55 Calm 16.09 Fair CLR 15 11 77% 76.12 0.0
01 19:35 Calm 16.09 Fair CLR 15 11 77% 76.12 0.0
01 19:15 Calm 16.09 Fair CLR 16 10 68% 76.12 0.0
01 18:35 Calm 16.09 Fair CLR 17 11 68% 76.1 0.0
01 18:15 Calm 16.09 Fair CLR 17 11 68% 76.12 0.0
01 17:55 NW 15 16.09 Fair CLR 19 11 60% 76.12 0.0
01 17:35 NW 15 G 26 16.09 Fair CLR 19 11 60% 76.1 0.0
01 17:15 NW 13 G 24 16.09 Fair CLR 19 11 60% 76.12 0.0
01 16:55 NW 20 16.09 Fair CLR 19 10 56% 76.12 0.0
01 16:35 NW 17 16.09 Fair CLR 20 11 56% 76.12 0.0
01 16:15 NW 19 16.09 Fair CLR 19 11 60% 76.15 0.0
01 15:55 NW 15 16.09 Fair CLR 20 11 56% 76.15 0.0
01 15:35 NW 17 16.09 Fair CLR 20 11 56% 76.17 0.0
01 15:15 NW 17 16.09 Fair CLR 19 11 60% 76.2 0.0
01 14:55 NW 17 16.09 Fair CLR 19 12 64% 76.2 0.0
01 14:35 NW 19 16.09 Fair CLR 19 11 60% 76.2 0.0
01 14:15 NW 20 16.09 Fair CLR 19 11 60% 76.2 0.0
01 13:55 NW 13 16.09 Fair CLR 19 11 60% 76.23 0.0
01 13:35 NW 13 16.09 Fair CLR 19 12 64% 76.23 0.0
01 13:15 NW 11 16.09 Fair CLR 19 12 64% 76.23 0.0
01 12:55 NW 11 16.09 Fair CLR 19 12 64% 76.25 0.0
01 12:35 NW 13 16.09 Fair CLR 18 12 68% 76.25 0.0
01 12:15 N 6 16.09 Fair CLR 18 12 68% 76.25 0.0
01 11:55 NW 9 16.09 Fair CLR 18 12 68% 76.28 0.0
01 11:35 Calm 16.09 Fair CLR 18 12 68% 76.28 0.0
01 11:15 SW 9 16.09 Fair CLR 17 12 73% 76.3 0.0
01 10:55 Calm 16.09 Fair CLR 16 12 77% 76.3 0.0
01 10:35 Calm 16.09 Fair CLR 16 12 77% 76.3 0.0
01 10:15 Calm 16.09 Fair CLR 15 12 82% 76.3 0.0
01 09:55 Calm 16.09 Fair CLR 14 12 88% 76.33 0.0
01 09:35 Calm 16.09 Fair CLR 13 12 94% 76.33 0.0
01 09:15 SW 7 16.09 Fair CLR 13 12 94% 76.33 0.0
01 08:55 SW 11 16.09 Fair CLR 13 12 94% 76.33 0.0
01 08:35 Calm 16.09 Fair CLR 12 11 94% 76.33 0.0
01 08:15 Calm 16.09 Fair CLR 12 11 94% 76.33 0.0
01 07:55 Calm 16.09 Fair CLR 11 11 100% 76.33 0.0
01 07:35 Calm 16.09 Fair CLR 11 11 100% 76.3 0.0
01 07:15 Calm 16.09 Fair CLR 10 10 100% 76.3 0.0
01 06:55 Calm 16.09 Fair CLR 9 9 100% 76.28 0.0
01 06:35 Calm 16.09 Fair CLR 8 8 100% 76.28 0.0
01 06:15 Calm 16.09 Fair CLR 9 9 100% 76.25 0.0
01 05:55 Calm 16.09 Fair CLR 8 8 100% 76.25 0.0
01 05:35 Calm 12.87 Fair CLR 8 8 100% 76.25 0.0
01 05:15 Calm 16.09 Fair CLR 8 8 100% 76.25 0.0
01 04:55 Calm 16.09 Fair CLR 9 9 100% 76.25 0.0
01 04:35 Calm 16.09 Fair CLR 9 9 100% 76.25 0.0
01 04:15 Calm 16.09 Fair CLR 10 9 94% 76.23 0.0
01 03:55 Calm 16.09 Fair CLR 9 9 100% 76.23 0.0
01 03:35 Calm 16.09 Fair CLR 10 9 94% 76.25 0.0
01 03:15 Calm 16.09 Fair CLR 9 9 100% 76.25 0.0
01 02:55 Calm 16.09 Fair CLR 10 9 94% 76.25 0.0
01 02:35 Calm 16.09 Fair CLR 10 10 100% 76.28 0.0
01 02:15 Calm 16.09 A Few Clouds FEW100 10 10 100% 76.28 0.0
01 01:55 Calm 16.09 Mostly Cloudy BKN100 10 10 100% 76.28 0.0
01 01:35 Calm 16.09 Mostly Cloudy BKN100 10 9 94% 76.28 0.0
01 01:15 Calm 16.09 Overcast OVC100 9 9 100% 76.28 0.0
01 00:55 Calm 16.09 Overcast OVC100 10 10 100% 76.28 0.0
01 00:35 Calm 16.09 Partly Cloudy SCT100 10 10 100% 76.25 0.0
01 00:15 Calm 16.09 Fair CLR 11 10 94% 76.25 0.0
30 23:55 Calm 16.09 Fair CLR 12 10 88% 76.25 0.0
30 23:35 Calm 16.09 Fair CLR 11 10 94% 76.25 0.0
30 23:15 Calm 16.09 Fair CLR 11 10 94% 76.28 0.0
30 22:55 Calm 16.09 Fair CLR 11 10 94% 76.28 0.0
30 22:35 Calm 16.09 Fair CLR 11 10 94% 76.28 0.0
30 22:15 Calm 16.09 Fair CLR 11 10 94% 76.28 0.0
30 21:55 Calm 16.09 Fair CLR 10 10 100% 76.28 0.0
30 21:35 Calm 16.09 Fair CLR 12 10 88% 76.25 0.0
30 21:15 Calm 16.09 Fair CLR 13 10 82% 76.25 0.0
30 20:55 SW 6 16.09 Fair CLR 13 11 88% 76.23 0.0
30 20:35 Calm 16.09 Fair CLR 14 11 82% 76.2 0.0
30 20:15 Calm 16.09 Fair CLR 15 10 72% 76.2 0.0
30 19:55 Calm 16.09 Fair CLR 15 10 72% 76.2 0.0
30 19:35 NW 7 16.09 Fair CLR 16 10 68% 76.2 0.0
30 18:55 NW 6 16.09 Fair CLR 17 10 64% 76.23 0.0
30 18:35 NW 15 16.09 Fair CLR 18 10 60% 76.23 0.0
30 18:15 NW 13 16.09 Fair CLR 19 10 56% 76.23 0.0
30 17:55 NW 17 16.09 Fair CLR 19 10 56% 76.25 0.0
30 17:35 NW 13 16.09 Fair CLR 19 10 56% 76.25 0.0
30 17:15 NW 19 16.09 Fair CLR 19 10 56% 76.28 0.0
30 16:55 NW 17 16.09 Fair CLR 19 11 60% 76.3 0.0
30 16:35 NW 20 16.09 Fair CLR 19 10 56% 76.33 0.0
30 16:15 NW 22 16.09 Fair CLR 19 11 60% 76.33 0.0
30 15:55 NW 17 16.09 Fair CLR 19 12 64% 76.35 0.0
30 15:35 NW 9 16.09 Fair CLR 19 12 64% 76.38 0.0
30 15:15 NW 17 16.09 Fair CLR 19 12 64% 76.38 0.0
30 14:55 NW 17 G 26 16.09 Fair CLR 19 12 64% 76.4 0.0
30 14:35 NW 22 16.09 Fair CLR 19 12 64% 76.4 0.0
30 14:15 NW 19 16.09 Fair CLR 18 12 68% 76.43 0.0
30 13:55 NW 20 16.09 Fair CLR 18 12 68% 76.43 0.0
30 13:35 NW 20 16.09 Fair CLR 19 12 64% 76.45 0.0
30 13:15 NW 22 16.09 Fair CLR 17 12 73% 76.45 0.0
30 12:55 NW 19 16.09 Fair CLR 17 12 73% 76.48 0.0
30 12:35 NW 13 16.09 Fair CLR 18 12 68% 76.48 0.0
30 12:15 NW 13 16.09 Fair CLR 18 12 68% 76.5 0.0
30 11:55 N 7 16.09 Fair CLR 18 11 64% 76.53 0.0
30 11:35 NW 13 16.09 Fair CLR 17 10 64% 76.53 0.0
30 11:15 NW 13 16.09 Fair CLR 17 11 68% 76.56 0.0
30 10:55 NW 7 16.09 Fair CLR 16 11 72% 76.58 0.0
30 10:35 NW 9 16.09 Fair CLR 16 11 72% 76.58 0.0
30 10:15 NW 11 16.09 Fair CLR 15 11 77% 76.61 0.0
30 09:55 NW 11 16.09 Fair CLR 15 11 77% 76.63 0.0
30 09:35 NW 13 16.09 Fair CLR 15 10 72% 76.63 0.0
30 09:15 NW 9 16.09 Fair CLR 15 11 77% 76.63 0.0
30 08:55 Calm 16.09 Fair CLR 15 10 72% 76.63 0.0
30 08:35 Calm 16.09 Fair CLR 14 11 82% 76.63 0.0
30 08:15 Calm 16.09 Fair CLR 13 11 88% 76.66 0.0
30 07:55 Calm 16.09 Fair CLR 12 10 88% 76.66 0.0
30 07:35 Calm 16.09 Fair CLR 12 10 88% 76.66 0.0
30 07:15 Calm 16.09 Fair CLR 11 10 94% 76.63 0.0
30 06:55 Calm 16.09 Fair CLR 10 10 100% 76.66 0.0
30 06:35 Calm 16.09 Fair CLR 8 8 100% 76.66 0.0
30 06:15 Calm 3.22 Fog/Mist CLR 6 6 100% 76.66 0.0
30 05:55 Calm 9.66 Fog/Mist CLR 7 7 100% 76.66 0.0
30 05:35 Calm 16.09 Fair CLR 7 7 100% 76.63 0.0
30 05:15 Calm 6.44 Fog/Mist CLR 5 5 100% 76.66 0.0
30 04:35 Calm 9.66 Fog/Mist CLR 6 6 100% 76.66 0.0
30 04:15 Calm 3.22 Fog/Mist CLR 7 7 100% 76.66 0.0
30 03:55 Calm 14.48 Fair CLR 6 6 100% 76.66 0.0
30 03:35 Calm 11.27 Fair CLR 7 7 100% 76.66 0.0
30 03:15 Calm 16.09 Fair CLR 7 7 100% 76.66 0.0
30 02:55 Calm 16.09 Fair CLR 8 8 100% 76.66 0.0
30 02:35 Calm 16.09 Fair CLR 8 8 100% 76.66 0.0
30 02:15 Calm 16.09 Fair CLR 9 8 94% 76.66 0.0
30 01:55 Calm 16.09 Fair CLR 8 8 100% 76.68 0.0
30 01:35 Calm 16.09 Fair CLR 9 9 100% 76.68 0.0
30 01:15 Calm 16.09 Fair CLR 9 9 100% 76.68 0.0
30 00:55 Calm 16.09 Fair CLR 9 9 100% 76.71 0.0
30 00:35 Calm 16.09 Fair CLR 9 8 94% 76.71 0.0
30 00:15 Calm 16.09 Fair CLR 9 8 94% 76.71 0.0
29 23:55 Calm 16.09 Fair CLR 9 8 94% 76.71 0.0
29 23:35 Calm 16.09 Fair CLR 9 8 94% 76.68 0.0
29 23:15 Calm 16.09 Fair CLR 10 8 88% 76.68 0.0
29 22:55 Calm 16.09 Fair CLR 9 8 94% 76.68 0.0
29 22:35 Calm 16.09 Fair CLR 9 8 94% 76.68 0.0
29 22:15 Calm 16.09 Fair CLR 9 7 87% 76.68 0.0
29 21:55 Calm 16.09 Fair CLR 10 7 82% 76.68 0.0
29 21:35 Calm 16.09 Fair CLR 10 7 82% 76.68 0.0
29 21:15 Calm 16.09 Fair CLR 11 7 77% 76.68 0.0
29 20:55 Calm 16.09 Fair CLR 12 7 72% 76.66 0.0
29 20:35 Calm 16.09 Fair CLR 12 7 72% 76.66 0.0
29 20:15 NW 7 16.09 Fair CLR 13 6 63% 76.66 0.0
29 19:55 NW 13 16.09 Fair CLR 14 6 59% 76.66 0.0
29 19:35 NW 13 16.09 Fair CLR 15 6 55% 76.66 0.0
Date Time (pdt) Wind (kph) Vis. (km) Weather Sky Cond. Air Dwpt Max. Min. Relative Humidity Wind Chill (°C) Heat Index (°C) altimeter (cm) sea level (mb) 1 hr 3 hr 6 hr
6 hour
Temperature (ºC) Pressure Precipitation (cm)